お知らせ:
表示件数の上限に達しました。これ以上の検索結果は表示できません。再読み込み
更新日時順»

ベストツイート

な「りんごちゃんこの飲み物は何?」 り「紅茶だよ☕︎」 な「紅茶?」 り「そう紅茶だよ」 な「飲んでみたい」 り「駄目🙅‍♀️」 な「今日はイケズやわー」 り「京都弁?舞妓さん?」 #なるやま君 pic.twitter.com/wCdPpkBJ0w

画像・動画を閉じる

画像・動画を常に展開するオンオフ

な「りんごちゃんこの飲み物は何?」 り「紅茶だよ☕︎」 な「紅茶?」 り「そう紅茶だよ」 な「飲んでみたい」 り「駄目🙅‍♀️」 な「今日はイケズやわー」 り「京都弁?舞妓さん?」 #なるやま君 pic.twitter.com/wCdPpkBJ0w

なるやま君「風強過ぎなのにテント泊とか・・・」 #なるやま君 pic.twitter.com/KbBOyPLWZ9

カジノもダンスも楽しみます😍 チップ預けてきました。1年間はキープしてくれるみたいだけど。 #なるやま君 pic.twitter.com/O8gevRR2Gv

飛鳥Ⅱにも乗ったなるやま君 #なるやま君 pic.twitter.com/xz7d414NTL

返信先:@suguryun他1人 RJCC 120600Z 34012KT 0900 R01L/P2000N R01R/P2000N SHSN VV006 M03/M04 Q1013 RMK A2992 読み方が分からない? 意味が分からない? なら、この一冊を! #成山堂書店は出版社です #なるやま君 ご注文は、コーヒーが好きな成山堂書店の営業マンの@suguryun すぐりゅんさんへ!(^-^) pic.twitter.com/75b7iWGBOc

おはようございます。 昨夕から降りだした☔は止まず、今朝まで残りました。 でも、この後は天候は回復するそうです。 寒さは相変わらずですが・・・ 今日も宜しくお願いしますm(._.)m #なるやま君 #成山堂書店 pic.twitter.com/SJj1SywLf3

な「またハーゲンダッツ食べるの?」 り「そうだよー😋」 な「僕にも頂戴💦」 り「分けて食べよう」 な「わーい、それにしてもエライ今日は優しいなぁ」 り「るんるんー♪(╹◡╹)」 な「・・・・・・💦」 #なるやま君 pic.twitter.com/Qfre25iQqN

おはようございます! 昨夜、3回目のボヘミアン・ラプソディを観てきました。今朝のコーヒーはいつもより濃く感じるのは気のせいかしら…⁈ #どんカフェ #なるやま君 #研師の手 pic.twitter.com/xipfA9IpOQ

TwitterタイガーN 中野妙敦 中野刃物の包丁担当@tigernakano

返信 リツイート 12/11(火) 8:38

さるびあ丸 船内では、別のフォロワーさんと遭遇! #なるやま君 と共に賑やかな記念撮影 #船のクルボン pic.twitter.com/aNycnWq0Ew

お知らせ:
表示件数の上限に達しました。これ以上の検索結果は表示できません。再読み込み
リアルタイム検索

#なるやま君の分析グラフ

ツイート数の推移

感情の推移

感情の割合

トレンド(23:25時点)

この検索結果をシェア